createdAt,value
2023-03-27T18:42:44.277Z,27.20
2023-03-27T18:45:14.437Z,26.85
2023-03-27T18:47:44.797Z,26.46
2023-03-27T18:50:17.483Z,26.76
2023-03-27T18:52:45.816Z,26.17
2023-03-27T18:55:13.886Z,26.35
2023-03-27T18:57:44.172Z,25.98
2023-03-27T19:00:18.742Z,25.41
2023-03-27T19:02:51.505Z,24.94
2023-03-27T19:05:19.692Z,25.05
2023-03-27T19:07:48.418Z,24.80
2023-03-27T19:10:16.628Z,24.78
2023-03-27T19:12:54.993Z,25.07
2023-03-27T19:16:14.461Z,25.50
2023-03-27T19:19:01.554Z,25.81
2023-03-27T19:21:55.290Z,26.16
2023-03-27T19:24:36.033Z,26.22
2023-03-27T19:27:05.071Z,25.63
2023-03-27T19:29:34.466Z,25.50
2023-03-27T19:32:03.101Z,26.14
2023-03-27T19:34:42.100Z,26.16
2023-03-27T19:37:11.536Z,26.37
2023-03-27T19:39:39.761Z,26.80
2023-03-27T19:42:08.058Z,27.46
2023-03-27T19:44:48.252Z,26.18
2023-03-27T19:47:21.095Z,27.07
2023-03-27T19:49:49.698Z,26.51
2023-03-27T19:52:57.270Z,27.08
2023-03-27T19:55:29.584Z,27.67
2023-03-27T19:57:58.223Z,28.00
2023-03-27T20:00:26.638Z,28.21
2023-03-27T20:02:54.950Z,28.78
2023-03-27T20:05:23.690Z,28.12
2023-03-27T20:07:52.492Z,27.31
2023-03-27T20:10:21.799Z,27.98
2023-03-27T20:12:49.933Z,27.97
2023-03-27T20:15:18.579Z,27.82
2023-03-27T20:17:47.083Z,28.08
2023-03-27T20:20:15.503Z,28.13
2023-03-27T20:22:57.140Z,28.20
2023-03-27T20:25:28.338Z,27.43
2023-03-27T20:27:56.723Z,27.65
2023-03-27T20:30:25.222Z,27.29
2023-03-27T20:32:54.744Z,28.25
2023-03-27T20:35:24.953Z,27.78
2023-03-27T20:37:56.541Z,28.29
2023-03-27T20:40:27.258Z,28.47
2023-03-27T20:43:04.268Z,28.77
2023-03-27T20:45:32.723Z,28.60
2023-03-27T20:48:04.448Z,28.96
2023-03-27T20:50:35.970Z,28.49
2023-03-27T20:53:04.975Z,29.38
2023-03-27T20:55:37.539Z,28.99
2023-03-27T20:58:14.520Z,29.72
2023-03-27T21:00:44.396Z,30.40
2023-03-27T21:03:12.481Z,30.54
2023-03-27T21:05:41.989Z,30.50
2023-03-27T21:08:10.319Z,31.67
2023-03-27T21:10:39.294Z,31.74
2023-03-27T21:13:08.011Z,31.67
2023-03-27T21:15:36.413Z,32.28
2023-03-27T21:18:04.549Z,32.15
2023-03-27T21:20:35.087Z,32.70
2023-03-27T21:23:03.446Z,32.84
2023-03-27T21:25:31.664Z,32.30
2023-03-27T21:28:04.751Z,32.54
2023-03-27T21:30:46.929Z,32.78
2023-03-27T21:33:16.978Z,32.62
2023-03-27T21:35:49.442Z,33.18
2023-03-27T21:38:18.443Z,34.61
2023-03-27T21:40:48.038Z,34.79
2023-03-27T21:43:16.410Z,35.46
2023-03-27T21:45:44.632Z,35.21
2023-03-27T21:48:12.746Z,34.89
2023-03-27T21:50:41.574Z,35.95
2023-03-27T21:53:09.969Z,36.29
2023-03-27T21:55:38.555Z,36.08
2023-03-27T21:58:07.347Z,35.59
2023-03-27T22:00:36.227Z,35.98
2023-03-27T22:03:04.583Z,34.07
2023-03-27T22:05:36.896Z,33.30
2023-03-27T22:08:06.651Z,33.15
2023-03-27T22:10:36.458Z,32.96
2023-03-27T22:13:06.290Z,34.13
2023-03-27T22:15:34.654Z,34.57
2023-03-27T22:18:03.372Z,35.02
2023-03-27T22:20:32.052Z,34.11
2023-03-27T22:23:00.611Z,34.46
2023-03-27T22:25:28.829Z,33.18
2023-03-27T22:27:57.376Z,33.51
2023-03-27T22:30:26.123Z,34.42
2023-03-27T22:32:55.377Z,34.60
2023-03-27T22:35:23.964Z,34.73
2023-03-27T22:37:52.580Z,35.53
2023-03-27T22:40:21.328Z,35.81
2023-03-27T22:42:49.611Z,35.60
2023-03-27T22:45:18.294Z,36.49
2023-03-27T22:47:47.031Z,35.75
2023-03-27T22:50:16.303Z,36.30
2023-03-27T22:52:44.468Z,36.97
2023-03-27T22:55:12.621Z,36.99
2023-03-27T22:57:41.382Z,37.27
2023-03-27T23:00:10.382Z,38.01
2023-03-27T23:02:38.983Z,39.42
2023-03-27T23:05:07.586Z,40.75
2023-03-27T23:07:36.642Z,42.13
2023-03-27T23:10:04.974Z,41.94
2023-03-27T23:12:33.572Z,41.45
2023-03-27T23:15:01.892Z,40.35
2023-03-27T23:17:30.623Z,37.35
2023-03-27T23:19:59.426Z,36.68
2023-03-27T23:22:27.616Z,38.83
2023-03-27T23:24:56.373Z,40.41
2023-03-27T23:27:25.054Z,40.61
2023-03-27T23:29:53.238Z,39.58
2023-03-27T23:32:22.100Z,39.06
2023-03-27T23:34:50.248Z,38.66
2023-03-27T23:37:18.889Z,38.94
2023-03-27T23:39:47.606Z,38.90
2023-03-27T23:42:16.248Z,39.99
2023-03-27T23:44:44.852Z,40.48
2023-03-27T23:47:13.568Z,40.39
2023-03-27T23:49:43.130Z,41.44
2023-03-27T23:52:11.694Z,42.27
2023-03-27T23:54:40.452Z,41.94
2023-03-27T23:57:09.276Z,42.66
2023-03-27T23:59:38.401Z,41.51
